createdAt,value
2022-11-06T00:06:49.994Z,11.40
2022-11-06T00:16:53.921Z,10.30
2022-11-06T00:26:58.004Z,8.30
2022-11-06T00:37:02.593Z,9.50
2022-11-06T00:47:06.779Z,9.20
2022-11-06T00:57:10.617Z,8.90
2022-11-06T01:07:14.616Z,13.70
2022-11-06T01:17:18.188Z,8.60
2022-11-06T01:27:26.743Z,10.50
2022-11-06T01:37:31.241Z,8.80
2022-11-06T01:47:35.000Z,11.60
2022-11-06T01:57:39.890Z,11.00
2022-11-06T02:07:44.369Z,17.30
2022-11-06T02:18:09.143Z,11.90
2022-11-06T02:28:24.452Z,9.80
2022-11-06T02:38:43.568Z,9.80
2022-11-06T02:49:03.109Z,13.60
2022-11-06T02:59:12.879Z,12.20
2022-11-06T03:09:21.099Z,9.90
2022-11-06T03:19:54.628Z,11.90
2022-11-06T03:30:05.589Z,11.00
2022-11-06T03:40:15.020Z,16.00
2022-11-06T03:50:33.357Z,16.70
2022-11-06T04:00:41.113Z,15.60
2022-11-06T04:11:07.185Z,19.70
2022-11-06T04:21:26.300Z,16.60
2022-11-06T04:31:42.788Z,14.30
2022-11-06T04:41:50.642Z,13.70
2022-11-06T05:01:58.202Z,12.50
2022-11-06T05:12:02.239Z,14.10
2022-11-06T05:22:24.928Z,20.20
2022-11-06T05:32:31.051Z,16.20
2022-11-06T05:42:38.667Z,18.80
2022-11-06T05:52:42.280Z,15.30
2022-11-06T06:02:46.157Z,20.40
2022-11-06T06:12:50.944Z,14.00
2022-11-06T06:22:59.368Z,14.90
2022-11-06T06:33:07.277Z,17.50
2022-11-06T06:43:11.059Z,20.70
2022-11-06T06:53:15.213Z,26.10
2022-11-06T07:03:18.995Z,23.30
2022-11-06T07:13:22.855Z,25.90
2022-11-06T07:23:26.730Z,22.80
2022-11-06T07:33:30.997Z,25.90
2022-11-06T07:43:36.106Z,24.50
2022-11-06T07:53:40.172Z,24.70
2022-11-06T08:03:44.556Z,22.60
2022-11-06T08:13:48.423Z,22.20
2022-11-06T08:23:52.187Z,27.10
2022-11-06T08:33:55.964Z,25.70
2022-11-06T08:43:59.835Z,25.70
2022-11-06T08:54:05.276Z,24.50
2022-11-06T09:04:09.820Z,21.90
2022-11-06T09:14:13.709Z,22.70
2022-11-06T09:24:27.389Z,21.40
2022-11-06T09:34:42.019Z,15.00
2022-11-06T09:44:46.173Z,15.50
2022-11-06T09:54:58.041Z,17.00
2022-11-06T10:05:26.378Z,9.50
2022-11-06T10:15:46.065Z,8.30
2022-11-06T10:26:19.460Z,11.00
2022-11-06T10:36:30.871Z,20.40
2022-11-06T10:46:40.178Z,12.30
2022-11-06T10:57:09.222Z,10.20
2022-11-06T11:07:21.301Z,11.80
2022-11-06T11:17:25.869Z,13.90
2022-11-06T11:27:38.738Z,15.40
2022-11-06T11:37:43.359Z,14.80
2022-11-06T11:47:50.298Z,10.00
2022-11-06T11:57:59.464Z,15.20
2022-11-06T12:08:05.468Z,22.70
2022-11-06T12:18:20.692Z,17.40
2022-11-06T12:28:25.900Z,19.00
2022-11-06T12:39:16.851Z,19.50
2022-11-06T12:49:47.697Z,18.80
2022-11-06T13:00:02.044Z,23.20
2022-11-06T13:10:10.217Z,15.50
2022-11-06T13:20:27.695Z,31.30
2022-11-06T13:30:32.535Z,23.80
2022-11-06T13:40:43.528Z,22.50
2022-11-06T13:51:17.907Z,32.30
2022-11-06T14:01:35.938Z,20.20
2022-11-06T14:11:43.851Z,31.20
2022-11-06T14:21:51.906Z,26.20
2022-11-06T14:32:07.043Z,31.70
2022-11-06T14:42:11.813Z,19.60
2022-11-06T14:52:17.593Z,29.10
2022-11-06T15:02:27.000Z,16.90
2022-11-06T15:13:07.423Z,24.70
2022-11-06T15:23:22.563Z,28.90
2022-11-06T15:33:43.200Z,33.80
2022-11-06T15:43:50.893Z,23.40
2022-11-06T15:53:56.097Z,25.50
2022-11-06T16:04:15.758Z,24.40
2022-11-06T16:14:23.558Z,26.20
2022-11-06T16:24:59.920Z,24.00
2022-11-06T16:35:33.131Z,26.00
2022-11-06T16:45:57.458Z,21.30
2022-11-06T16:56:11.438Z,25.10
2022-11-06T17:06:25.830Z,29.80
2022-11-06T17:16:31.459Z,33.20
2022-11-06T17:26:41.678Z,33.70
2022-11-06T17:36:46.360Z,34.60
2022-11-06T17:46:51.733Z,24.40
2022-11-06T17:56:59.339Z,36.10
2022-11-06T18:07:04.422Z,30.30
2022-11-06T18:17:11.697Z,33.50
2022-11-06T18:27:17.457Z,34.00
2022-11-06T18:37:30.073Z,26.30
2022-11-06T18:47:34.442Z,18.80
2022-11-06T18:57:41.796Z,15.60
2022-11-06T19:07:51.904Z,20.20
2022-11-06T19:18:00.963Z,18.00
2022-11-06T19:28:06.080Z,17.30
2022-11-06T19:38:12.221Z,16.10
2022-11-06T19:48:18.957Z,16.20
2022-11-06T19:58:23.734Z,13.60
2022-11-06T20:08:29.878Z,15.30
2022-11-06T20:18:39.276Z,16.60
2022-11-06T20:28:47.837Z,20.30
2022-11-06T20:38:58.255Z,20.10
2022-11-06T20:49:07.316Z,18.80
2022-11-06T20:59:12.783Z,16.10
2022-11-06T21:09:18.699Z,15.20
2022-11-06T21:19:27.643Z,19.00
2022-11-06T21:29:32.242Z,15.60
2022-11-06T21:39:37.001Z,24.10
2022-11-06T21:49:40.721Z,21.50
2022-11-06T21:59:45.609Z,22.50
2022-11-06T22:09:50.168Z,27.00
2022-11-06T22:19:54.350Z,34.10
2022-11-06T22:29:58.438Z,35.90
2022-11-06T22:40:02.098Z,34.80
2022-11-06T22:50:06.467Z,23.80
2022-11-06T23:00:11.510Z,18.10
2022-11-06T23:10:15.141Z,18.40
2022-11-06T23:20:21.464Z,20.10
2022-11-06T23:30:25.124Z,24.70
2022-11-06T23:40:29.088Z,14.10
2022-11-06T23:50:32.980Z,16.00
